Yuma, AZ

8:19 AM MST on February 10, 2016 (GMT -0700)
Caballero Park | | Change Station
CLOSE
Current Station
Personal Weather Station
Location: Yuma, AZ
Elevation: 200 ft
Nearby Weather Stations

Elev 200 ft 32.67 °N, 114.63 °W | Updated 10 seconds ago

Clear
Clear
61.3 °F
Feels Like 61.3 °F
N
8.3
Wind Variable Wind from ESE
Gusts 8.3 mph

Today
High -- | Low -- °F
--% Chance of Precip.
Yesterday
High -- | Low -- °F
Precip. -- in
Pressure 30.17 in
Visibility 10.0 miles
Clouds Few 25000 ft
Dew Point 31 °F
Humidity 32%
Rainfall 0.00 in
Snow Depth Not available.
7:26 AM 6:19 PM
Waxing Crescent, 6% visible
METAR KNYL 101457Z 04009KT 10SM FEW250 15/M03 A3017 RMK AO2 SLPNO 6//// T01501028 $
Pressure 30.17 in
Visibility 10.0 miles
Clouds Few 25000 ft
Dew Point 31 °F
Humidity 32%
Rainfall 0.00 in
Snow Depth Not available.
7:26 AM 6:19 PM
Waxing Crescent, 6% visible
METAR KNYL 101457Z 04009KT 10SM FEW250 15/M03 A3017 RMK AO2 SLPNO 6//// T01501028 $

10-Day Weather Forecast

Almanac

Astronomy

Feb. 10, 2016 Rise Set
Actual Time
Civil Twilight
Nautical Twilight
Astronomical Twilight
Moon
Length of Visible Light
Length of Day
Tomorrow will be .
, % of the Moon is Illuminated

Today's Extremes

State Highs State Lows

Community

WunderPhotos

Upload Photos

1,891,857 photos uploaded!

WunderBlog® & News

Nearby

Air Quality

  Air Quality AQ Index Pollutant
Not available.

Snow Depth

Station Depth Elevation

Earthquake Activity

City Distance Mag. Time & Date
Minimum magnitude displayed is 2.5.

Coastal Water Temperatures

Place Temperature

Stations

Nearby Weather Stations

Station Location Temp. Windchill Dew Point Humidity Wind Precip. Elev Updated Type
                   

Watches & Warnings

There are currently no watches in effect.